sensor_id;sensor_type;location;lat;lon;timestamp;P1;durP1;ratioP1;P2;durP2;ratioP2
69325;SDS011;56471;53.508;49.252;2023-06-14T00:01:54;5.32;;;2.47;;
69325;SDS011;56471;53.508;49.252;2023-06-14T00:04:20;3.55;;;2.30;;
69325;SDS011;56471;53.508;49.252;2023-06-14T00:06:47;3.78;;;2.22;;
69325;SDS011;56471;53.508;49.252;2023-06-14T00:09:13;4.93;;;2.65;;
69325;SDS011;56471;53.508;49.252;2023-06-14T00:11:40;7.28;;;2.45;;
69325;SDS011;56471;53.508;49.252;2023-06-14T00:14:06;7.20;;;2.25;;
69325;SDS011;56471;53.508;49.252;2023-06-14T00:16:32;4.28;;;2.47;;
69325;SDS011;56471;53.508;49.252;2023-06-14T00:19:02;4.70;;;2.33;;
69325;SDS011;56471;53.508;49.252;2023-06-14T00:21:31;3.25;;;2.33;;
69325;SDS011;56471;53.508;49.252;2023-06-14T00:23:57;7.28;;;2.60;;
69325;SDS011;56471;53.508;49.252;2023-06-14T00:26:24;4.60;;;2.35;;
69325;SDS011;56471;53.508;49.252;2023-06-14T00:28:51;7.13;;;2.70;;
69325;SDS011;56471;53.508;49.252;2023-06-14T00:31:17;4.75;;;2.50;;
69325;SDS011;56471;53.508;49.252;2023-06-14T00:33:43;6.05;;;2.40;;
69325;SDS011;56471;53.508;49.252;2023-06-14T00:36:08;3.47;;;2.40;;
69325;SDS011;56471;53.508;49.252;2023-06-14T00:38:34;4.80;;;2.85;;
69325;SDS011;56471;53.508;49.252;2023-06-14T00:41:00;3.75;;;2.40;;
69325;SDS011;56471;53.508;49.252;2023-06-14T00:43:25;4.93;;;2.60;;
69325;SDS011;56471;53.508;49.252;2023-06-14T00:45:51;5.38;;;2.88;;
69325;SDS011;56471;53.508;49.252;2023-06-14T00:48:17;7.65;;;2.80;;
69325;SDS011;56471;53.508;49.252;2023-06-14T00:50:44;4.70;;;2.60;;
69325;SDS011;56471;53.508;49.252;2023-06-14T00:53:11;3.38;;;2.63;;
69325;SDS011;56471;53.508;49.252;2023-06-14T00:55:37;4.82;;;2.63;;
69325;SDS011;56471;53.508;49.252;2023-06-14T00:58:03;4.30;;;2.67;;
69325;SDS011;56471;53.508;49.252;2023-06-14T01:00:29;4.60;;;2.60;;
69325;SDS011;56471;53.508;49.252;2023-06-14T01:02:55;4.75;;;2.97;;
69325;SDS011;56471;53.508;49.252;2023-06-14T01:05:21;4.10;;;2.58;;
69325;SDS011;56471;53.508;49.252;2023-06-14T01:08:31;7.57;;;2.90;;
69325;SDS011;56471;53.508;49.252;2023-06-14T01:10:56;6.63;;;2.67;;
69325;SDS011;56471;53.508;49.252;2023-06-14T01:13:43;4.10;;;2.65;;
69325;SDS011;56471;53.508;49.252;2023-06-14T01:16:11;4.30;;;2.70;;
69325;SDS011;56471;53.508;49.252;2023-06-14T01:18:37;6.32;;;2.83;;
69325;SDS011;56471;53.508;49.252;2023-06-14T01:21:03;7.25;;;2.70;;
69325;SDS011;56471;53.508;49.252;2023-06-14T01:23:33;3.88;;;2.70;;
69325;SDS011;56471;53.508;49.252;2023-06-14T01:25:59;5.35;;;2.70;;
69325;SDS011;56471;53.508;49.252;2023-06-14T01:28:28;6.15;;;2.90;;
69325;SDS011;56471;53.508;49.252;2023-06-14T01:30:57;5.05;;;2.92;;
69325;SDS011;56471;53.508;49.252;2023-06-14T01:33:28;6.38;;;2.67;;
69325;SDS011;56471;53.508;49.252;2023-06-14T01:35:56;7.30;;;2.70;;
69325;SDS011;56471;53.508;49.252;2023-06-14T01:38:23;9.73;;;2.47;;
69325;SDS011;56471;53.508;49.252;2023-06-14T01:40:50;4.50;;;3.00;;
69325;SDS011;56471;53.508;49.252;2023-06-14T01:43:18;11.15;;;2.80;;
69325;SDS011;56471;53.508;49.252;2023-06-14T01:45:45;6.93;;;2.83;;
69325;SDS011;56471;53.508;49.252;2023-06-14T01:48:13;9.85;;;2.90;;
69325;SDS011;56471;53.508;49.252;2023-06-14T01:50:39;7.93;;;2.85;;
69325;SDS011;56471;53.508;49.252;2023-06-14T01:53:09;3.85;;;2.35;;
69325;SDS011;56471;53.508;49.252;2023-06-14T01:55:35;6.75;;;2.60;;
69325;SDS011;56471;53.508;49.252;2023-06-14T01:58:02;4.57;;;2.78;;
69325;SDS011;56471;53.508;49.252;2023-06-14T02:00:29;5.28;;;2.63;;
69325;SDS011;56471;53.508;49.252;2023-06-14T02:02:55;6.20;;;2.72;;
69325;SDS011;56471;53.508;49.252;2023-06-14T02:05:21;4.95;;;2.50;;
69325;SDS011;56471;53.508;49.252;2023-06-14T02:07:47;5.60;;;2.70;;
69325;SDS011;56471;53.508;49.252;2023-06-14T02:10:13;9.40;;;2.90;;
69325;SDS011;56471;53.508;49.252;2023-06-14T02:12:40;4.38;;;2.60;;
69325;SDS011;56471;53.508;49.252;2023-06-14T02:15:06;3.40;;;2.40;;
69325;SDS011;56471;53.508;49.252;2023-06-14T02:17:32;3.08;;;2.35;;
69325;SDS011;56471;53.508;49.252;2023-06-14T02:19:58;5.43;;;2.53;;
69325;SDS011;56471;53.508;49.252;2023-06-14T02:22:24;6.13;;;2.60;;
69325;SDS011;56471;53.508;49.252;2023-06-14T02:24:49;8.50;;;2.47;;
69325;SDS011;56471;53.508;49.252;2023-06-14T02:27:15;7.00;;;2.50;;
69325;SDS011;56471;53.508;49.252;2023-06-14T02:29:42;2.95;;;2.45;;
69325;SDS011;56471;53.508;49.252;2023-06-14T02:32:07;4.78;;;2.72;;
69325;SDS011;56471;53.508;49.252;2023-06-14T02:34:33;9.13;;;2.85;;
69325;SDS011;56471;53.508;49.252;2023-06-14T02:37:00;7.50;;;3.10;;
69325;SDS011;56471;53.508;49.252;2023-06-14T02:39:28;7.15;;;2.95;;
69325;SDS011;56471;53.508;49.252;2023-06-14T02:41:54;6.80;;;3.00;;
69325;SDS011;56471;53.508;49.252;2023-06-14T02:44:20;5.97;;;2.90;;
69325;SDS011;56471;53.508;49.252;2023-06-14T02:46:50;5.65;;;2.60;;
69325;SDS011;56471;53.508;49.252;2023-06-14T02:49:16;6.13;;;3.10;;
69325;SDS011;56471;53.508;49.252;2023-06-14T02:51:42;5.15;;;2.75;;
69325;SDS011;56471;53.508;49.252;2023-06-14T02:54:07;4.63;;;2.50;;
69325;SDS011;56471;53.508;49.252;2023-06-14T02:56:33;5.70;;;3.03;;
69325;SDS011;56471;53.508;49.252;2023-06-14T02:58:59;7.88;;;2.70;;
69325;SDS011;56471;53.508;49.252;2023-06-14T03:01:28;6.78;;;2.55;;
69325;SDS011;56471;53.508;49.252;2023-06-14T03:04:02;7.25;;;2.50;;
69325;SDS011;56471;53.508;49.252;2023-06-14T03:06:31;4.78;;;2.90;;
69325;SDS011;56471;53.508;49.252;2023-06-14T03:08:57;2.92;;;2.50;;
69325;SDS011;56471;53.508;49.252;2023-06-14T03:11:29;6.07;;;2.55;;
69325;SDS011;56471;53.508;49.252;2023-06-14T03:13:56;5.30;;;2.80;;
69325;SDS011;56471;53.508;49.252;2023-06-14T03:16:22;4.18;;;2.55;;
69325;SDS011;56471;53.508;49.252;2023-06-14T03:18:49;5.93;;;2.63;;
69325;SDS011;56471;53.508;49.252;2023-06-14T03:21:16;5.15;;;2.50;;
69325;SDS011;56471;53.508;49.252;2023-06-14T03:23:43;6.65;;;2.60;;
69325;SDS011;56471;53.508;49.252;2023-06-14T03:26:09;4.65;;;2.60;;
69325;SDS011;56471;53.508;49.252;2023-06-14T03:28:38;4.18;;;2.42;;
69325;SDS011;56471;53.508;49.252;2023-06-14T03:31:03;3.95;;;2.60;;
69325;SDS011;56471;53.508;49.252;2023-06-14T03:33:29;4.93;;;2.90;;
69325;SDS011;56471;53.508;49.252;2023-06-14T03:35:55;4.32;;;2.58;;
69325;SDS011;56471;53.508;49.252;2023-06-14T03:38:21;5.40;;;3.17;;
69325;SDS011;56471;53.508;49.252;2023-06-14T03:40:47;5.35;;;2.95;;
69325;SDS011;56471;53.508;49.252;2023-06-14T03:43:13;4.57;;;2.83;;
69325;SDS011;56471;53.508;49.252;2023-06-14T03:45:39;8.52;;;3.22;;
69325;SDS011;56471;53.508;49.252;2023-06-14T03:48:05;7.63;;;3.15;;
69325;SDS011;56471;53.508;49.252;2023-06-14T03:50:32;3.60;;;3.10;;
69325;SDS011;56471;53.508;49.252;2023-06-14T03:52:58;7.00;;;3.15;;
69325;SDS011;56471;53.508;49.252;2023-06-14T03:55:23;7.50;;;4.00;;
69325;SDS011;56471;53.508;49.252;2023-06-14T03:57:51;6.60;;;3.38;;
69325;SDS011;56471;53.508;49.252;2023-06-14T04:00:17;5.53;;;3.65;;
69325;SDS011;56471;53.508;49.252;2023-06-14T04:02:43;6.85;;;3.67;;
69325;SDS011;56471;53.508;49.252;2023-06-14T04:05:09;4.47;;;3.00;;
69325;SDS011;56471;53.508;49.252;2023-06-14T04:07:35;5.43;;;3.20;;
69325;SDS011;56471;53.508;49.252;2023-06-14T04:10:10;8.38;;;3.92;;
69325;SDS011;56471;53.508;49.252;2023-06-14T04:12:36;10.15;;;4.03;;
69325;SDS011;56471;53.508;49.252;2023-06-14T04:15:02;8.98;;;3.95;;
69325;SDS011;56471;53.508;49.252;2023-06-14T04:17:28;9.50;;;4.00;;
69325;SDS011;56471;53.508;49.252;2023-06-14T04:19:54;10.75;;;4.30;;
69325;SDS011;56471;53.508;49.252;2023-06-14T04:22:20;8.50;;;3.75;;
69325;SDS011;56471;53.508;49.252;2023-06-14T04:24:46;10.10;;;4.30;;
69325;SDS011;56471;53.508;49.252;2023-06-14T04:27:11;9.45;;;4.18;;
69325;SDS011;56471;53.508;49.252;2023-06-14T04:29:39;9.50;;;4.40;;
69325;SDS011;56471;53.508;49.252;2023-06-14T04:32:08;9.60;;;3.67;;
69325;SDS011;56471;53.508;49.252;2023-06-14T04:34:35;7.75;;;3.90;;
69325;SDS011;56471;53.508;49.252;2023-06-14T04:37:02;7.00;;;3.70;;
69325;SDS011;56471;53.508;49.252;2023-06-14T04:39:28;5.95;;;3.50;;
69325;SDS011;56471;53.508;49.252;2023-06-14T04:41:54;6.43;;;3.50;;
69325;SDS011;56471;53.508;49.252;2023-06-14T04:44:22;6.57;;;3.40;;
69325;SDS011;56471;53.508;49.252;2023-06-14T04:46:55;8.70;;;3.30;;
69325;SDS011;56471;53.508;49.252;2023-06-14T04:49:23;9.05;;;3.22;;
69325;SDS011;56471;53.508;49.252;2023-06-14T04:51:49;5.95;;;3.25;;
69325;SDS011;56471;53.508;49.252;2023-06-14T04:54:22;8.80;;;2.95;;
69325;SDS011;56471;53.508;49.252;2023-06-14T04:56:50;8.30;;;3.65;;
69325;SDS011;56471;53.508;49.252;2023-06-14T04:59:16;5.93;;;3.00;;
69325;SDS011;56471;53.508;49.252;2023-06-14T05:01:42;6.07;;;3.25;;
69325;SDS011;56471;53.508;49.252;2023-06-14T05:04:16;10.40;;;3.95;;
69325;SDS011;56471;53.508;49.252;2023-06-14T05:06:42;5.22;;;3.58;;
69325;SDS011;56471;53.508;49.252;2023-06-14T05:09:13;8.88;;;3.40;;
69325;SDS011;56471;53.508;49.252;2023-06-14T05:11:40;5.15;;;3.58;;
69325;SDS011;56471;53.508;49.252;2023-06-14T05:14:13;6.60;;;3.83;;
69325;SDS011;56471;53.508;49.252;2023-06-14T05:16:39;5.00;;;3.10;;
69325;SDS011;56471;53.508;49.252;2023-06-14T05:19:06;5.03;;;3.30;;
69325;SDS011;56471;53.508;49.252;2023-06-14T05:21:32;6.60;;;3.40;;
69325;SDS011;56471;53.508;49.252;2023-06-14T05:24:01;7.10;;;3.15;;
69325;SDS011;56471;53.508;49.252;2023-06-14T05:26:26;5.65;;;3.30;;
69325;SDS011;56471;53.508;49.252;2023-06-14T05:28:55;8.98;;;2.97;;
69325;SDS011;56471;53.508;49.252;2023-06-14T05:31:26;3.47;;;2.70;;
69325;SDS011;56471;53.508;49.252;2023-06-14T05:33:53;4.97;;;2.90;;
69325;SDS011;56471;53.508;49.252;2023-06-14T05:36:19;4.28;;;2.80;;
69325;SDS011;56471;53.508;49.252;2023-06-14T05:38:48;7.38;;;2.97;;
69325;SDS011;56471;53.508;49.252;2023-06-14T05:41:14;5.88;;;2.85;;
69325;SDS011;56471;53.508;49.252;2023-06-14T05:43:39;4.72;;;2.70;;
69325;SDS011;56471;53.508;49.252;2023-06-14T05:46:05;7.43;;;2.88;;
69325;SDS011;56471;53.508;49.252;2023-06-14T05:48:31;6.63;;;3.28;;
69325;SDS011;56471;53.508;49.252;2023-06-14T05:50:56;10.18;;;3.08;;
69325;SDS011;56471;53.508;49.252;2023-06-14T05:53:22;10.70;;;3.30;;
69325;SDS011;56471;53.508;49.252;2023-06-14T05:55:49;10.70;;;3.67;;
69325;SDS011;56471;53.508;49.252;2023-06-14T05:58:16;8.75;;;3.67;;
69325;SDS011;56471;53.508;49.252;2023-06-14T06:00:42;8.13;;;3.75;;
69325;SDS011;56471;53.508;49.252;2023-06-14T06:03:10;7.13;;;4.00;;
69325;SDS011;56471;53.508;49.252;2023-06-14T06:05:36;8.13;;;3.50;;
69325;SDS011;56471;53.508;49.252;2023-06-14T06:08:02;7.45;;;4.32;;
69325;SDS011;56471;53.508;49.252;2023-06-14T06:10:27;6.90;;;3.42;;
69325;SDS011;56471;53.508;49.252;2023-06-14T06:12:53;6.95;;;3.83;;
69325;SDS011;56471;53.508;49.252;2023-06-14T06:15:19;6.63;;;3.60;;
69325;SDS011;56471;53.508;49.252;2023-06-14T06:17:45;8.30;;;4.05;;
69325;SDS011;56471;53.508;49.252;2023-06-14T06:20:11;8.30;;;4.10;;
69325;SDS011;56471;53.508;49.252;2023-06-14T06:22:37;12.70;;;4.30;;
69325;SDS011;56471;53.508;49.252;2023-06-14T06:25:03;8.55;;;4.22;;
69325;SDS011;56471;53.508;49.252;2023-06-14T06:27:29;10.35;;;4.22;;
69325;SDS011;56471;53.508;49.252;2023-06-14T06:29:55;9.50;;;4.32;;
69325;SDS011;56471;53.508;49.252;2023-06-14T06:32:21;13.05;;;4.60;;
69325;SDS011;56471;53.508;49.252;2023-06-14T06:34:47;12.35;;;4.07;;
69325;SDS011;56471;53.508;49.252;2023-06-14T06:37:13;15.75;;;4.75;;
69325;SDS011;56471;53.508;49.252;2023-06-14T06:39:39;11.05;;;4.47;;
69325;SDS011;56471;53.508;49.252;2023-06-14T06:42:04;8.60;;;4.10;;
69325;SDS011;56471;53.508;49.252;2023-06-14T06:44:31;12.25;;;4.50;;
69325;SDS011;56471;53.508;49.252;2023-06-14T06:46:57;8.43;;;4.47;;
69325;SDS011;56471;53.508;49.252;2023-06-14T06:49:23;8.95;;;4.30;;
69325;SDS011;56471;53.508;49.252;2023-06-14T06:54:44;9.85;;;4.35;;
69325;SDS011;56471;53.508;49.252;2023-06-14T06:57:10;9.95;;;4.03;;
69325;SDS011;56471;53.508;49.252;2023-06-14T06:59:36;9.10;;;4.30;;
69325;SDS011;56471;53.508;49.252;2023-06-14T07:02:02;10.73;;;4.75;;
69325;SDS011;56471;53.508;49.252;2023-06-14T07:04:28;8.57;;;4.47;;
69325;SDS011;56471;53.508;49.252;2023-06-14T07:06:53;7.50;;;4.38;;
69325;SDS011;56471;53.508;49.252;2023-06-14T07:09:19;7.18;;;4.50;;
69325;SDS011;56471;53.508;49.252;2023-06-14T07:11:46;10.80;;;4.45;;
69325;SDS011;56471;53.508;49.252;2023-06-14T07:14:12;10.73;;;4.57;;
69325;SDS011;56471;53.508;49.252;2023-06-14T07:16:38;8.20;;;4.43;;
69325;SDS011;56471;53.508;49.252;2023-06-14T07:19:04;9.60;;;4.65;;
69325;SDS011;56471;53.508;49.252;2023-06-14T07:21:30;12.35;;;4.60;;
69325;SDS011;56471;53.508;49.252;2023-06-14T07:23:56;11.60;;;4.93;;
69325;SDS011;56471;53.508;49.252;2023-06-14T07:26:22;13.45;;;4.57;;
69325;SDS011;56471;53.508;49.252;2023-06-14T07:28:48;10.20;;;4.38;;
69325;SDS011;56471;53.508;49.252;2023-06-14T07:31:17;13.88;;;4.65;;
69325;SDS011;56471;53.508;49.252;2023-06-14T07:33:44;13.65;;;4.50;;
69325;SDS011;56471;53.508;49.252;2023-06-14T07:36:10;10.35;;;4.30;;
69325;SDS011;56471;53.508;49.252;2023-06-14T07:38:38;15.82;;;4.72;;
69325;SDS011;56471;53.508;49.252;2023-06-14T07:41:06;10.93;;;4.60;;
69325;SDS011;56471;53.508;49.252;2023-06-14T07:43:32;8.40;;;4.30;;
69325;SDS011;56471;53.508;49.252;2023-06-14T07:45:58;13.45;;;4.00;;
69325;SDS011;56471;53.508;49.252;2023-06-14T07:48:23;10.25;;;4.45;;
69325;SDS011;56471;53.508;49.252;2023-06-14T07:50:49;7.93;;;4.00;;
69325;SDS011;56471;53.508;49.252;2023-06-14T07:53:14;7.28;;;3.95;;
69325;SDS011;56471;53.508;49.252;2023-06-14T07:55:40;9.90;;;3.55;;
69325;SDS011;56471;53.508;49.252;2023-06-14T07:58:09;6.82;;;3.97;;
69325;SDS011;56471;53.508;49.252;2023-06-14T08:00:35;6.97;;;3.40;;
69325;SDS011;56471;53.508;49.252;2023-06-14T08:03:01;8.48;;;3.60;;
69325;SDS011;56471;53.508;49.252;2023-06-14T08:05:28;5.57;;;3.50;;
69325;SDS011;56471;53.508;49.252;2023-06-14T08:07:54;8.27;;;3.70;;
69325;SDS011;56471;53.508;49.252;2023-06-14T08:10:20;8.32;;;3.38;;
69325;SDS011;56471;53.508;49.252;2023-06-14T08:12:47;6.05;;;3.60;;
69325;SDS011;56471;53.508;49.252;2023-06-14T08:15:15;6.47;;;3.33;;
69325;SDS011;56471;53.508;49.252;2023-06-14T08:17:42;4.43;;;3.10;;
69325;SDS011;56471;53.508;49.252;2023-06-14T08:20:09;4.78;;;3.00;;
69325;SDS011;56471;53.508;49.252;2023-06-14T08:22:35;7.03;;;3.10;;
69325;SDS011;56471;53.508;49.252;2023-06-14T08:25:02;5.13;;;3.10;;
69325;SDS011;56471;53.508;49.252;2023-06-14T08:27:29;5.03;;;3.00;;
69325;SDS011;56471;53.508;49.252;2023-06-14T08:29:54;5.07;;;2.97;;
69325;SDS011;56471;53.508;49.252;2023-06-14T08:32:21;4.28;;;2.53;;
69325;SDS011;56471;53.508;49.252;2023-06-14T08:34:47;5.35;;;3.03;;
69325;SDS011;56471;53.508;49.252;2023-06-14T08:37:12;93.30;;;63.53;;
69325;SDS011;56471;53.508;49.252;2023-06-14T08:39:38;39.85;;;22.77;;
69325;SDS011;56471;53.508;49.252;2023-06-14T08:42:04;15.02;;;6.90;;
69325;SDS011;56471;53.508;49.252;2023-06-14T08:44:32;8.60;;;4.60;;
69325;SDS011;56471;53.508;49.252;2023-06-14T08:46:59;6.95;;;4.28;;
69325;SDS011;56471;53.508;49.252;2023-06-14T08:49:25;7.00;;;3.53;;
69325;SDS011;56471;53.508;49.252;2023-06-14T08:51:59;5.53;;;3.30;;
69325;SDS011;56471;53.508;49.252;2023-06-14T08:54:29;8.23;;;3.00;;
69325;SDS011;56471;53.508;49.252;2023-06-14T08:56:58;6.63;;;3.10;;
69325;SDS011;56471;53.508;49.252;2023-06-14T08:59:27;6.90;;;3.13;;
69325;SDS011;56471;53.508;49.252;2023-06-14T09:01:53;6.68;;;3.08;;
69325;SDS011;56471;53.508;49.252;2023-06-14T09:04:23;8.20;;;3.25;;
69325;SDS011;56471;53.508;49.252;2023-06-14T09:06:54;8.98;;;2.88;;
69325;SDS011;56471;53.508;49.252;2023-06-14T09:09:21;6.00;;;3.00;;
69325;SDS011;56471;53.508;49.252;2023-06-14T09:11:51;5.90;;;2.78;;
69325;SDS011;56471;53.508;49.252;2023-06-14T09:14:21;4.95;;;2.80;;
69325;SDS011;56471;53.508;49.252;2023-06-14T09:16:51;4.57;;;2.97;;
69325;SDS011;56471;53.508;49.252;2023-06-14T09:19:21;7.20;;;2.83;;
69325;SDS011;56471;53.508;49.252;2023-06-14T09:21:52;8.20;;;3.10;;
69325;SDS011;56471;53.508;49.252;2023-06-14T09:24:18;7.32;;;2.90;;
69325;SDS011;56471;53.508;49.252;2023-06-14T09:26:46;5.00;;;2.65;;
69325;SDS011;56471;53.508;49.252;2023-06-14T09:29:12;10.70;;;2.70;;
69325;SDS011;56471;53.508;49.252;2023-06-14T09:31:38;7.97;;;2.70;;
69325;SDS011;56471;53.508;49.252;2023-06-14T09:34:04;6.20;;;3.08;;
69325;SDS011;56471;53.508;49.252;2023-06-14T09:36:31;7.70;;;3.00;;
69325;SDS011;56471;53.508;49.252;2023-06-14T09:39:01;4.90;;;2.90;;
69325;SDS011;56471;53.508;49.252;2023-06-14T09:44:01;4.22;;;2.67;;
69325;SDS011;56471;53.508;49.252;2023-06-14T09:46:28;4.03;;;2.83;;
69325;SDS011;56471;53.508;49.252;2023-06-14T09:48:58;4.53;;;2.60;;
69325;SDS011;56471;53.508;49.252;2023-06-14T09:51:24;6.55;;;2.90;;
69325;SDS011;56471;53.508;49.252;2023-06-14T09:53:51;4.40;;;3.03;;
69325;SDS011;56471;53.508;49.252;2023-06-14T09:56:31;5.55;;;2.78;;
69325;SDS011;56471;53.508;49.252;2023-06-14T09:59:00;7.20;;;2.90;;
69325;SDS011;56471;53.508;49.252;2023-06-14T10:01:35;6.90;;;2.80;;
69325;SDS011;56471;53.508;49.252;2023-06-14T10:04:05;16.58;;;7.95;;
69325;SDS011;56471;53.508;49.252;2023-06-14T10:06:32;8.13;;;4.50;;
69325;SDS011;56471;53.508;49.252;2023-06-14T10:09:03;7.55;;;3.70;;
69325;SDS011;56471;53.508;49.252;2023-06-14T10:11:31;5.07;;;3.30;;
69325;SDS011;56471;53.508;49.252;2023-06-14T10:13:57;4.65;;;3.20;;
69325;SDS011;56471;53.508;49.252;2023-06-14T10:19:11;6.78;;;3.30;;
69325;SDS011;56471;53.508;49.252;2023-06-14T10:24:23;7.68;;;3.20;;
69325;SDS011;56471;53.508;49.252;2023-06-14T10:27:05;5.75;;;3.13;;
69325;SDS011;56471;53.508;49.252;2023-06-14T10:29:35;8.70;;;2.90;;
69325;SDS011;56471;53.508;49.252;2023-06-14T10:32:27;245.57;;;181.15;;
69325;SDS011;56471;53.508;49.252;2023-06-14T10:35:04;608.83;;;463.57;;
69325;SDS011;56471;53.508;49.252;2023-06-14T10:37:31;381.83;;;283.30;;
69325;SDS011;56471;53.508;49.252;2023-06-14T10:39:57;291.58;;;210.45;;
69325;SDS011;56471;53.508;49.252;2023-06-14T10:42:27;181.32;;;116.30;;
69325;SDS011;56471;53.508;49.252;2023-06-14T10:44:56;136.93;;;89.50;;
69325;SDS011;56471;53.508;49.252;2023-06-14T10:47:32;99.15;;;61.58;;
69325;SDS011;56471;53.508;49.252;2023-06-14T10:50:04;72.43;;;41.38;;
69325;SDS011;56471;53.508;49.252;2023-06-14T10:52:34;64.43;;;36.08;;
69325;SDS011;56471;53.508;49.252;2023-06-14T10:57:58;30.02;;;16.33;;
69325;SDS011;56471;53.508;49.252;2023-06-14T11:00:27;21.80;;;11.63;;
69325;SDS011;56471;53.508;49.252;2023-06-14T11:05:28;15.15;;;7.63;;
69325;SDS011;56471;53.508;49.252;2023-06-14T11:10:43;9.45;;;4.68;;
69325;SDS011;56471;53.508;49.252;2023-06-14T11:13:12;7.07;;;3.85;;
69325;SDS011;56471;53.508;49.252;2023-06-14T11:15:38;10.35;;;3.70;;
69325;SDS011;56471;53.508;49.252;2023-06-14T11:18:08;6.32;;;3.60;;
69325;SDS011;56471;53.508;49.252;2023-06-14T11:20:37;8.30;;;3.60;;
69325;SDS011;56471;53.508;49.252;2023-06-14T11:23:04;5.10;;;3.53;;
69325;SDS011;56471;53.508;49.252;2023-06-14T11:25:30;7.22;;;3.45;;
69325;SDS011;56471;53.508;49.252;2023-06-14T11:27:56;9.43;;;3.60;;
69325;SDS011;56471;53.508;49.252;2023-06-14T11:30:23;5.45;;;3.20;;
69325;SDS011;56471;53.508;49.252;2023-06-14T11:32:51;8.32;;;2.83;;
69325;SDS011;56471;53.508;49.252;2023-06-14T11:35:18;4.97;;;3.30;;
69325;SDS011;56471;53.508;49.252;2023-06-14T11:37:48;8.60;;;3.20;;
69325;SDS011;56471;53.508;49.252;2023-06-14T11:40:17;7.30;;;3.10;;
69325;SDS011;56471;53.508;49.252;2023-06-14T11:42:43;6.90;;;3.10;;
69325;SDS011;56471;53.508;49.252;2023-06-14T11:45:09;8.00;;;3.10;;
69325;SDS011;56471;53.508;49.252;2023-06-14T11:47:37;7.53;;;2.85;;
69325;SDS011;56471;53.508;49.252;2023-06-14T11:50:05;6.78;;;3.30;;
69325;SDS011;56471;53.508;49.252;2023-06-14T11:52:33;8.63;;;3.25;;
69325;SDS011;56471;53.508;49.252;2023-06-14T11:54:59;6.70;;;3.20;;
69325;SDS011;56471;53.508;49.252;2023-06-14T11:57:26;5.60;;;2.88;;
69325;SDS011;56471;53.508;49.252;2023-06-14T11:59:52;20.48;;;9.32;;
69325;SDS011;56471;53.508;49.252;2023-06-14T12:02:21;170.18;;;128.05;;
69325;SDS011;56471;53.508;49.252;2023-06-14T12:04:47;114.85;;;81.82;;
69325;SDS011;56471;53.508;49.252;2023-06-14T12:07:17;11.93;;;5.80;;
69325;SDS011;56471;53.508;49.252;2023-06-14T12:12:23;9.30;;;3.42;;
69325;SDS011;56471;53.508;49.252;2023-06-14T12:14:52;4.93;;;3.25;;
69325;SDS011;56471;53.508;49.252;2023-06-14T12:17:18;7.60;;;3.10;;
69325;SDS011;56471;53.508;49.252;2023-06-14T12:19:45;6.72;;;3.17;;
69325;SDS011;56471;53.508;49.252;2023-06-14T12:22:13;11.23;;;2.90;;
69325;SDS011;56471;53.508;49.252;2023-06-14T12:24:42;8.50;;;3.10;;
69325;SDS011;56471;53.508;49.252;2023-06-14T12:27:08;8.30;;;3.97;;
69325;SDS011;56471;53.508;49.252;2023-06-14T12:29:37;10.25;;;4.75;;
69325;SDS011;56471;53.508;49.252;2023-06-14T12:32:03;11.52;;;5.60;;
69325;SDS011;56471;53.508;49.252;2023-06-14T12:34:28;291.05;;;165.05;;
69325;SDS011;56471;53.508;49.252;2023-06-14T12:36:56;592.13;;;411.58;;
69325;SDS011;56471;53.508;49.252;2023-06-14T12:39:22;418.50;;;281.98;;
69325;SDS011;56471;53.508;49.252;2023-06-14T12:41:49;174.32;;;99.85;;
69325;SDS011;56471;53.508;49.252;2023-06-14T12:44:15;79.35;;;38.90;;
69325;SDS011;56471;53.508;49.252;2023-06-14T12:46:41;47.10;;;19.73;;
69325;SDS011;56471;53.508;49.252;2023-06-14T12:49:11;28.40;;;11.05;;
69325;SDS011;56471;53.508;49.252;2023-06-14T12:51:39;20.00;;;6.97;;
69325;SDS011;56471;53.508;49.252;2023-06-14T12:54:05;12.65;;;5.20;;
69325;SDS011;56471;53.508;49.252;2023-06-14T12:56:31;9.82;;;4.35;;
69325;SDS011;56471;53.508;49.252;2023-06-14T12:58:57;9.07;;;3.35;;
69325;SDS011;56471;53.508;49.252;2023-06-14T13:01:23;14.43;;;3.17;;
69325;SDS011;56471;53.508;49.252;2023-06-14T13:03:49;7.95;;;3.50;;
69325;SDS011;56471;53.508;49.252;2023-06-14T13:06:20;9.15;;;3.03;;
69325;SDS011;56471;53.508;49.252;2023-06-14T13:08:50;12.20;;;3.30;;
69325;SDS011;56471;53.508;49.252;2023-06-14T13:11:18;11.60;;;3.45;;
69325;SDS011;56471;53.508;49.252;2023-06-14T13:13:43;5.53;;;2.85;;
69325;SDS011;56471;53.508;49.252;2023-06-14T13:16:09;15.38;;;2.90;;
69325;SDS011;56471;53.508;49.252;2023-06-14T13:18:35;279.92;;;163.77;;
69325;SDS011;56471;53.508;49.252;2023-06-14T13:21:01;284.75;;;209.38;;
69325;SDS011;56471;53.508;49.252;2023-06-14T13:23:27;135.93;;;90.63;;
69325;SDS011;56471;53.508;49.252;2023-06-14T13:25:55;31.77;;;17.15;;
69325;SDS011;56471;53.508;49.252;2023-06-14T13:28:20;7.10;;;4.20;;
69325;SDS011;56471;53.508;49.252;2023-06-14T13:30:48;7.55;;;3.40;;
69325;SDS011;56471;53.508;49.252;2023-06-14T13:33:21;14.18;;;3.58;;
69325;SDS011;56471;53.508;49.252;2023-06-14T13:35:47;5.95;;;3.00;;
69325;SDS011;56471;53.508;49.252;2023-06-14T13:38:13;11.40;;;3.08;;
69325;SDS011;56471;53.508;49.252;2023-06-14T13:40:40;9.88;;;3.05;;
69325;SDS011;56471;53.508;49.252;2023-06-14T13:43:06;8.70;;;3.33;;
69325;SDS011;56471;53.508;49.252;2023-06-14T13:45:32;7.72;;;2.97;;
69325;SDS011;56471;53.508;49.252;2023-06-14T13:47:57;6.25;;;2.97;;
69325;SDS011;56471;53.508;49.252;2023-06-14T13:50:23;7.60;;;3.38;;
69325;SDS011;56471;53.508;49.252;2023-06-14T13:52:48;6.63;;;3.35;;
69325;SDS011;56471;53.508;49.252;2023-06-14T13:55:14;8.75;;;3.20;;
69325;SDS011;56471;53.508;49.252;2023-06-14T13:57:40;6.45;;;3.10;;
69325;SDS011;56471;53.508;49.252;2023-06-14T14:00:06;4.68;;;3.00;;
69325;SDS011;56471;53.508;49.252;2023-06-14T14:02:33;5.30;;;2.70;;
69325;SDS011;56471;53.508;49.252;2023-06-14T14:04:59;5.00;;;3.00;;
69325;SDS011;56471;53.508;49.252;2023-06-14T14:07:25;6.93;;;3.20;;
69325;SDS011;56471;53.508;49.252;2023-06-14T14:09:51;6.07;;;3.08;;
69325;SDS011;56471;53.508;49.252;2023-06-14T14:12:18;6.60;;;3.35;;
69325;SDS011;56471;53.508;49.252;2023-06-14T14:14:44;6.78;;;3.10;;
69325;SDS011;56471;53.508;49.252;2023-06-14T14:17:09;3.75;;;3.00;;
69325;SDS011;56471;53.508;49.252;2023-06-14T14:19:35;6.05;;;2.97;;
69325;SDS011;56471;53.508;49.252;2023-06-14T14:22:01;8.98;;;2.85;;
69325;SDS011;56471;53.508;49.252;2023-06-14T14:24:27;823.42;;;597.65;;
69325;SDS011;56471;53.508;49.252;2023-06-14T14:26:53;1179.65;;;740.72;;
69325;SDS011;56471;53.508;49.252;2023-06-14T14:29:19;927.15;;;641.70;;
69325;SDS011;56471;53.508;49.252;2023-06-14T14:31:45;484.10;;;316.52;;
69325;SDS011;56471;53.508;49.252;2023-06-14T14:34:11;248.30;;;138.18;;
69325;SDS011;56471;53.508;49.252;2023-06-14T14:36:37;115.90;;;60.03;;
69325;SDS011;56471;53.508;49.252;2023-06-14T14:39:07;73.05;;;33.80;;
69325;SDS011;56471;53.508;49.252;2023-06-14T14:41:33;48.22;;;18.30;;
69325;SDS011;56471;53.508;49.252;2023-06-14T14:43:59;35.58;;;11.43;;
69325;SDS011;56471;53.508;49.252;2023-06-14T14:46:26;23.90;;;8.05;;
69325;SDS011;56471;53.508;49.252;2023-06-14T14:48:53;16.05;;;5.65;;
69325;SDS011;56471;53.508;49.252;2023-06-14T14:51:18;17.33;;;4.43;;